createdAt,value
2023-01-09T00:00:35.288Z,89.83
2023-01-09T00:01:38.988Z,89.65
2023-01-09T00:02:41.167Z,89.42
2023-01-09T00:03:43.094Z,89.27
2023-01-09T00:04:44.923Z,89.46
2023-01-09T00:05:46.757Z,89.51
2023-01-09T00:06:54.470Z,89.66
2023-01-09T00:07:56.345Z,89.45
2023-01-09T00:08:58.173Z,89.25
2023-01-09T00:09:59.968Z,89.24
2023-01-09T00:11:02.119Z,89.45
2023-01-09T00:12:04.159Z,89.61
2023-01-09T00:13:05.991Z,89.63
2023-01-09T00:14:08.819Z,89.59
2023-01-09T00:15:12.161Z,89.67
2023-01-09T00:16:14.634Z,89.59
2023-01-09T00:17:16.544Z,89.85
2023-01-09T00:18:18.530Z,89.61
2023-01-09T00:19:20.391Z,90.13
2023-01-09T00:20:22.237Z,90.13
2023-01-09T00:21:24.019Z,90.18
2023-01-09T00:22:25.947Z,90.27
2023-01-09T00:23:27.852Z,90.13
2023-01-09T00:24:30.443Z,89.96
2023-01-09T00:25:32.277Z,90.31
2023-01-09T00:26:34.946Z,90.32
2023-01-09T00:27:37.189Z,90.31
2023-01-09T00:28:39.053Z,90.38
2023-01-09T00:29:46.314Z,90.47
2023-01-09T00:30:56.217Z,90.37
2023-01-09T00:31:58.152Z,90.27
2023-01-09T00:33:00.086Z,90.41
2023-01-09T00:34:03.795Z,90.41
2023-01-09T00:35:05.823Z,90.24
2023-01-09T00:36:07.928Z,90.41
2023-01-09T00:37:12.166Z,90.04
2023-01-09T00:38:14.020Z,89.65
2023-01-09T00:39:15.911Z,89.94
2023-01-09T00:40:18.296Z,89.69
2023-01-09T00:41:23.206Z,89.52
2023-01-09T00:42:26.665Z,89.21
2023-01-09T00:43:31.757Z,89.46
2023-01-09T00:44:36.354Z,89.04
2023-01-09T00:45:38.375Z,89.43
2023-01-09T00:46:42.483Z,89.24
2023-01-09T00:47:46.360Z,88.97
2023-01-09T00:48:50.051Z,88.77
2023-01-09T00:49:52.955Z,88.88
2023-01-09T00:50:57.823Z,89.01
2023-01-09T00:51:59.708Z,88.73
2023-01-09T00:53:11.099Z,88.80
2023-01-09T00:54:15.249Z,88.88
2023-01-09T00:55:17.437Z,89.00
2023-01-09T00:56:20.881Z,88.95
2023-01-09T00:57:22.667Z,88.94
2023-01-09T00:58:24.574Z,89.17
2023-01-09T00:59:27.656Z,88.85
2023-01-09T01:00:29.595Z,89.13
2023-01-09T01:01:31.547Z,89.04
2023-01-09T01:02:33.528Z,88.72
2023-01-09T01:03:35.401Z,88.85
2023-01-09T01:04:55.631Z,88.72
2023-01-09T01:06:16.202Z,88.68
2023-01-09T01:07:36.874Z,88.56
2023-01-09T01:08:38.644Z,88.50
2023-01-09T01:09:40.564Z,88.60
2023-01-09T01:10:42.871Z,88.65
2023-01-09T01:11:44.670Z,88.61
2023-01-09T01:12:47.190Z,88.50
2023-01-09T01:13:48.983Z,88.50
2023-01-09T01:14:52.627Z,88.56
2023-01-09T01:15:54.549Z,88.58
2023-01-09T01:16:56.424Z,88.32
2023-01-09T01:17:58.244Z,88.36
2023-01-09T01:19:00.081Z,88.39
2023-01-09T01:20:01.942Z,88.35
2023-01-09T01:21:10.507Z,88.12
2023-01-09T01:22:12.444Z,88.41
2023-01-09T01:23:14.426Z,88.31
2023-01-09T01:24:20.083Z,88.26
2023-01-09T01:25:22.337Z,88.43
2023-01-09T01:26:24.256Z,88.37
2023-01-09T01:27:26.047Z,88.22
2023-01-09T01:28:27.867Z,88.30
2023-01-09T01:29:29.689Z,88.53
2023-01-09T01:30:31.845Z,88.68
2023-01-09T01:31:33.683Z,88.40
2023-01-09T01:32:35.535Z,88.32
2023-01-09T01:33:37.415Z,88.38
2023-01-09T01:34:39.237Z,88.42
2023-01-09T01:35:41.110Z,88.50
2023-01-09T01:36:43.018Z,88.44
2023-01-09T01:37:44.862Z,88.60
2023-01-09T01:38:47.723Z,88.37
2023-01-09T01:39:49.541Z,88.50
2023-01-09T01:40:54.924Z,88.45
2023-01-09T01:41:56.866Z,88.55
2023-01-09T01:42:59.046Z,88.54
2023-01-09T01:44:02.051Z,88.58
2023-01-09T01:45:13.232Z,88.56
2023-01-09T01:46:16.654Z,88.66
2023-01-09T01:47:19.844Z,88.69
2023-01-09T01:48:29.274Z,88.63
2023-01-09T01:49:31.730Z,88.29
2023-01-09T01:50:37.242Z,88.53
2023-01-09T01:51:45.494Z,88.57
2023-01-09T01:52:51.396Z,89.07
2023-01-09T01:53:55.778Z,89.24
2023-01-09T01:54:57.567Z,89.21
2023-01-09T01:56:17.852Z,89.60
2023-01-09T01:57:19.680Z,89.75
2023-01-09T01:58:21.615Z,89.77
2023-01-09T01:59:23.342Z,89.93
2023-01-09T02:00:28.356Z,89.75
2023-01-09T02:01:30.671Z,89.81
2023-01-09T02:02:33.291Z,89.48
2023-01-09T02:03:36.016Z,89.94
2023-01-09T02:04:41.596Z,89.73
2023-01-09T02:05:43.853Z,89.65
2023-01-09T02:06:47.351Z,89.69
2023-01-09T02:07:49.227Z,89.46
2023-01-09T02:08:51.252Z,89.45
2023-01-09T02:09:53.952Z,89.39
2023-01-09T02:10:55.829Z,89.39
2023-01-09T02:11:58.184Z,89.28
2023-01-09T02:13:01.228Z,89.70
2023-01-09T02:14:03.569Z,89.73
2023-01-09T02:15:10.985Z,90.10
2023-01-09T02:16:12.878Z,90.09
2023-01-09T02:17:25.317Z,90.22
2023-01-09T02:18:46.367Z,90.02
2023-01-09T02:19:59.582Z,90.16
2023-01-09T02:21:16.415Z,89.86
2023-01-09T02:22:30.913Z,89.92
2023-01-09T02:23:38.597Z,90.02
2023-01-09T02:24:43.668Z,90.18
2023-01-09T02:26:03.976Z,89.86
2023-01-09T02:27:19.292Z,89.95
2023-01-09T02:28:24.253Z,89.63
2023-01-09T02:29:26.060Z,89.93
2023-01-09T02:30:32.172Z,89.79
2023-01-09T02:31:33.997Z,89.81
2023-01-09T02:32:35.788Z,89.80
2023-01-09T02:33:47.689Z,89.90
2023-01-09T02:35:11.795Z,89.88
2023-01-09T02:36:13.603Z,89.61
2023-01-09T02:37:26.419Z,90.05
2023-01-09T02:38:34.085Z,89.76
2023-01-09T02:39:41.908Z,89.55
2023-01-09T02:40:56.762Z,89.62
2023-01-09T02:42:06.289Z,89.59
2023-01-09T02:43:08.712Z,89.62
2023-01-09T02:44:22.634Z,89.54
2023-01-09T02:45:24.432Z,89.27
2023-01-09T02:46:26.344Z,89.26
2023-01-09T02:47:28.335Z,89.13
2023-01-09T02:48:31.267Z,89.39
2023-01-09T02:49:34.814Z,89.29
2023-01-09T02:50:40.560Z,89.28
2023-01-09T02:52:00.809Z,89.20
2023-01-09T02:53:17.720Z,89.18
2023-01-09T02:54:31.735Z,89.38
2023-01-09T02:55:36.494Z,89.33
2023-01-09T02:57:04.722Z,89.42
2023-01-09T02:58:09.609Z,89.68
2023-01-09T02:59:19.226Z,89.33
2023-01-09T03:00:35.004Z,89.70
2023-01-09T03:01:46.611Z,89.75
2023-01-09T03:02:52.144Z,89.93
2023-01-09T03:04:03.330Z,90.00
2023-01-09T03:05:24.021Z,90.00
2023-01-09T03:06:44.776Z,90.11
2023-01-09T03:07:52.224Z,90.16
2023-01-09T03:09:01.705Z,89.99
2023-01-09T03:10:08.796Z,89.89
2023-01-09T03:11:12.125Z,89.97
2023-01-09T03:12:19.435Z,90.02
2023-01-09T03:13:22.944Z,89.78
2023-01-09T03:14:26.505Z,89.81
2023-01-09T03:15:29.791Z,89.72
2023-01-09T03:16:33.126Z,89.72
2023-01-09T03:17:39.284Z,89.77
2023-01-09T03:18:42.302Z,90.03
2023-01-09T03:19:46.033Z,89.25
2023-01-09T03:20:48.269Z,89.51
2023-01-09T03:21:50.578Z,89.93
2023-01-09T03:22:56.527Z,89.41
2023-01-09T03:23:59.979Z,89.61
2023-01-09T03:25:01.947Z,89.43
2023-01-09T03:26:03.698Z,89.87
2023-01-09T03:27:09.589Z,89.77
2023-01-09T03:28:30.134Z,89.96
2023-01-09T03:29:32.280Z,89.94
2023-01-09T03:30:35.675Z,89.94
2023-01-09T03:31:37.562Z,90.21
2023-01-09T03:32:39.370Z,90.20
2023-01-09T03:33:41.578Z,90.30
2023-01-09T03:34:43.410Z,90.09
2023-01-09T03:35:45.314Z,90.17
2023-01-09T03:36:47.182Z,90.27
2023-01-09T03:37:49.015Z,90.15
2023-01-09T03:38:51.728Z,90.33
2023-01-09T03:39:53.666Z,90.15
2023-01-09T03:40:55.464Z,89.73
2023-01-09T03:41:57.528Z,90.10
2023-01-09T03:42:59.282Z,89.94
2023-01-09T03:44:01.114Z,89.91
2023-01-09T03:45:02.959Z,89.52
2023-01-09T03:46:05.183Z,89.89
2023-01-09T03:47:06.964Z,89.93
2023-01-09T03:48:08.790Z,89.59
2023-01-09T03:49:10.590Z,89.67
2023-01-09T03:50:12.445Z,89.81
2023-01-09T03:51:14.343Z,89.75
2023-01-09T03:52:16.212Z,89.81
2023-01-09T03:53:18.155Z,90.15
2023-01-09T03:54:19.936Z,90.28
2023-01-09T03:55:21.884Z,90.07
2023-01-09T03:56:23.861Z,89.79
2023-01-09T03:57:25.931Z,89.72
2023-01-09T03:58:27.897Z,89.93
2023-01-09T03:59:33.684Z,89.70
2023-01-09T04:00:35.489Z,89.91
2023-01-09T04:01:37.445Z,89.92
2023-01-09T04:02:39.701Z,89.74
2023-01-09T04:03:41.691Z,89.72
2023-01-09T04:04:43.440Z,90.04
2023-01-09T04:05:46.492Z,89.83
2023-01-09T04:06:48.371Z,89.76
2023-01-09T04:07:50.356Z,89.72
2023-01-09T04:08:52.180Z,89.54
2023-01-09T04:09:53.946Z,89.31
2023-01-09T04:10:55.712Z,89.23
2023-01-09T04:11:57.543Z,89.60
2023-01-09T04:12:59.555Z,89.27
2023-01-09T04:14:01.434Z,89.45
2023-01-09T04:15:03.348Z,89.51
2023-01-09T04:16:05.798Z,89.57
2023-01-09T04:17:07.645Z,89.69
2023-01-09T04:18:09.547Z,89.32
2023-01-09T04:19:11.425Z,89.85
2023-01-09T04:20:13.309Z,89.78
2023-01-09T04:21:15.061Z,89.78
2023-01-09T04:22:16.882Z,89.63
2023-01-09T04:23:19.417Z,89.71
2023-01-09T04:24:21.426Z,89.73
2023-01-09T04:25:23.435Z,89.87
2023-01-09T04:26:25.284Z,89.83
2023-01-09T04:27:27.082Z,89.85
2023-01-09T04:28:28.884Z,89.51
2023-01-09T04:29:30.693Z,89.94
2023-01-09T04:30:32.816Z,90.28
2023-01-09T04:31:34.752Z,90.41
2023-01-09T04:32:36.612Z,90.28
2023-01-09T04:33:38.405Z,90.38
2023-01-09T04:34:40.229Z,90.37
2023-01-09T04:35:42.040Z,90.80
2023-01-09T04:36:43.828Z,90.55
2023-01-09T04:37:45.640Z,90.43
2023-01-09T04:38:47.584Z,90.57
2023-01-09T04:39:49.988Z,90.30
2023-01-09T04:40:51.878Z,90.73
2023-01-09T04:41:53.716Z,90.28
2023-01-09T04:42:55.509Z,90.51
2023-01-09T04:43:57.329Z,90.58
2023-01-09T04:44:59.198Z,90.47
2023-01-09T04:46:01.384Z,90.19
2023-01-09T04:47:03.230Z,90.52
2023-01-09T04:48:05.282Z,90.48
2023-01-09T04:49:07.208Z,90.23
2023-01-09T04:50:09.838Z,90.53
2023-01-09T04:51:13.943Z,90.32
2023-01-09T04:52:15.891Z,90.21
2023-01-09T04:53:17.661Z,89.92
2023-01-09T04:54:20.047Z,90.05
2023-01-09T04:55:21.913Z,89.74
2023-01-09T04:56:23.767Z,89.96
2023-01-09T04:57:25.634Z,90.06
2023-01-09T04:58:27.433Z,89.88
2023-01-09T04:59:29.333Z,90.41
2023-01-09T05:00:31.781Z,90.51
2023-01-09T05:01:33.728Z,90.65
2023-01-09T05:02:36.351Z,90.46
2023-01-09T05:03:38.143Z,90.53
2023-01-09T05:04:40.057Z,90.32
2023-01-09T05:05:41.988Z,90.56
2023-01-09T05:06:43.772Z,90.38
2023-01-09T05:07:45.565Z,90.61
2023-01-09T05:08:47.455Z,90.51
2023-01-09T05:09:49.407Z,90.71
2023-01-09T05:10:51.290Z,91.38
2023-01-09T05:11:53.056Z,91.26
2023-01-09T05:12:54.802Z,91.56
2023-01-09T05:13:56.900Z,91.70
2023-01-09T05:14:58.672Z,91.89
2023-01-09T05:16:00.558Z,92.02
2023-01-09T05:17:02.478Z,92.22
2023-01-09T05:18:04.305Z,92.58
2023-01-09T05:19:06.324Z,92.29
2023-01-09T05:20:08.575Z,92.54
2023-01-09T05:21:10.446Z,92.64
2023-01-09T05:22:13.135Z,93.08
2023-01-09T05:23:14.943Z,92.86
2023-01-09T05:24:16.893Z,94.07
2023-01-09T05:25:18.669Z,93.63
2023-01-09T05:26:24.327Z,94.00
2023-01-09T05:27:27.733Z,94.07
2023-01-09T05:28:29.587Z,93.95
2023-01-09T05:29:31.408Z,93.96
2023-01-09T05:30:33.221Z,93.87
2023-01-09T05:31:35.109Z,93.90
2023-01-09T05:32:36.909Z,93.87
2023-01-09T05:33:38.654Z,93.85
2023-01-09T05:34:40.442Z,93.89
2023-01-09T05:35:42.273Z,93.84
2023-01-09T05:36:44.188Z,93.73
2023-01-09T05:37:46.261Z,93.93
2023-01-09T05:38:48.097Z,93.73
2023-01-09T05:39:49.906Z,93.47
2023-01-09T05:40:51.710Z,93.71
2023-01-09T05:41:53.708Z,93.54
2023-01-09T05:42:55.482Z,93.72
2023-01-09T05:43:57.287Z,93.67
2023-01-09T05:44:59.053Z,93.37
2023-01-09T05:46:01.151Z,93.40
2023-01-09T05:47:03.127Z,93.40
2023-01-09T05:48:04.929Z,93.70
2023-01-09T05:49:06.790Z,93.24
2023-01-09T05:50:08.874Z,93.53
2023-01-09T05:51:10.834Z,92.61
2023-01-09T05:52:12.685Z,92.78
2023-01-09T05:53:14.739Z,92.66
2023-01-09T05:54:16.569Z,92.60
2023-01-09T05:55:18.386Z,92.33
2023-01-09T05:56:20.163Z,92.27
2023-01-09T05:57:22.163Z,92.13
2023-01-09T05:58:23.924Z,92.04
2023-01-09T05:59:25.778Z,91.99
2023-01-09T06:00:27.717Z,91.84
2023-01-09T06:01:29.551Z,91.54
2023-01-09T06:02:31.551Z,91.56
2023-01-09T06:03:33.846Z,91.69
2023-01-09T06:04:35.692Z,91.32
2023-01-09T06:05:37.605Z,91.64
2023-01-09T06:06:41.128Z,91.68
2023-01-09T06:07:43.174Z,92.02
2023-01-09T06:08:44.941Z,91.69
2023-01-09T06:09:46.908Z,91.69
2023-01-09T06:10:48.892Z,91.44
2023-01-09T06:11:50.725Z,91.58
2023-01-09T06:12:53.544Z,91.92
2023-01-09T06:13:55.433Z,91.82
2023-01-09T06:14:57.273Z,91.75
2023-01-09T06:15:59.254Z,91.69
2023-01-09T06:17:01.057Z,91.87
2023-01-09T06:18:03.337Z,92.20
2023-01-09T06:19:06.236Z,92.26
2023-01-09T06:20:08.530Z,92.61
2023-01-09T06:21:10.347Z,92.03
2023-01-09T06:22:12.292Z,92.32
2023-01-09T06:23:14.313Z,92.68
2023-01-09T06:24:16.171Z,92.59
2023-01-09T06:25:18.443Z,92.32
2023-01-09T06:26:20.338Z,92.40
2023-01-09T06:27:22.157Z,92.28
2023-01-09T06:28:24.007Z,92.35
2023-01-09T06:29:25.854Z,92.40
2023-01-09T06:30:27.676Z,92.35
2023-01-09T06:31:29.678Z,93.18
2023-01-09T06:32:31.477Z,92.71
2023-01-09T06:33:33.345Z,92.77
2023-01-09T06:34:35.290Z,92.67
2023-01-09T06:35:37.071Z,92.70
2023-01-09T06:36:39.039Z,92.67
2023-01-09T06:37:40.967Z,92.66
2023-01-09T06:38:42.972Z,92.41
2023-01-09T06:39:44.878Z,93.15
2023-01-09T06:40:46.615Z,92.37
2023-01-09T06:41:48.806Z,92.63
2023-01-09T06:42:50.933Z,92.19
2023-01-09T06:43:52.793Z,92.57
2023-01-09T06:44:54.686Z,92.59
2023-01-09T06:45:57.158Z,92.52
2023-01-09T06:46:59.162Z,92.59
2023-01-09T06:48:00.943Z,92.39
2023-01-09T06:49:02.745Z,92.26
2023-01-09T06:50:04.800Z,92.25
2023-01-09T06:51:06.657Z,92.31
2023-01-09T06:52:08.534Z,92.30
2023-01-09T06:53:11.081Z,92.56
2023-01-09T06:54:12.911Z,92.08
2023-01-09T06:55:14.877Z,92.38
2023-01-09T06:56:16.750Z,92.18
2023-01-09T06:57:18.639Z,92.49
2023-01-09T06:58:20.865Z,92.20
2023-01-09T06:59:22.736Z,92.84
2023-01-09T07:00:24.820Z,92.89
2023-01-09T07:01:26.824Z,92.56
2023-01-09T07:02:28.801Z,92.76
2023-01-09T07:03:33.007Z,92.09
2023-01-09T07:04:35.720Z,92.30
2023-01-09T07:05:42.645Z,92.13
2023-01-09T07:06:47.382Z,92.53
2023-01-09T07:07:49.179Z,92.26
2023-01-09T07:08:51.066Z,92.58
2023-01-09T07:09:53.238Z,92.58
2023-01-09T07:10:55.104Z,91.83
2023-01-09T07:11:56.932Z,92.28
2023-01-09T07:12:58.743Z,92.37
2023-01-09T07:14:00.556Z,92.04
2023-01-09T07:15:02.345Z,92.46
2023-01-09T07:16:05.912Z,92.31
2023-01-09T07:17:07.803Z,92.00
2023-01-09T07:18:09.697Z,91.85
2023-01-09T07:19:11.554Z,91.68
2023-01-09T07:20:13.282Z,92.25
2023-01-09T07:21:15.168Z,92.04
2023-01-09T07:22:17.477Z,92.42
2023-01-09T07:23:19.316Z,92.55
2023-01-09T07:24:21.203Z,92.41
2023-01-09T07:25:23.056Z,92.53
2023-01-09T07:26:24.852Z,92.05
2023-01-09T07:27:26.630Z,92.45
2023-01-09T07:28:28.489Z,91.90
2023-01-09T07:29:30.466Z,92.56
2023-01-09T07:30:33.923Z,92.61
2023-01-09T07:31:35.821Z,92.56
2023-01-09T07:32:38.842Z,92.46
2023-01-09T07:33:40.691Z,92.17
2023-01-09T07:34:42.513Z,92.55
2023-01-09T07:35:44.371Z,92.58
2023-01-09T07:36:47.097Z,92.13
2023-01-09T07:37:48.931Z,92.67
2023-01-09T07:38:50.729Z,92.76
2023-01-09T07:39:52.597Z,92.42
2023-01-09T07:40:54.356Z,92.55
2023-01-09T07:41:56.358Z,92.10
2023-01-09T07:42:58.106Z,92.55
2023-01-09T07:43:59.888Z,91.76
2023-01-09T07:45:01.793Z,92.03
2023-01-09T07:46:03.655Z,91.72
2023-01-09T07:47:05.720Z,92.16
2023-01-09T07:48:07.670Z,91.68
2023-01-09T07:49:09.534Z,92.07
2023-01-09T07:50:11.577Z,91.99
2023-01-09T07:51:13.956Z,91.37
2023-01-09T07:52:15.926Z,91.42
2023-01-09T07:53:20.273Z,91.23
2023-01-09T07:54:22.169Z,90.81
2023-01-09T07:55:23.931Z,90.69
2023-01-09T07:56:25.806Z,90.45
2023-01-09T07:57:27.749Z,90.78
2023-01-09T07:58:29.605Z,90.40
2023-01-09T07:59:31.565Z,90.78
2023-01-09T08:00:33.429Z,90.35
2023-01-09T08:01:35.356Z,90.38
2023-01-09T08:02:37.401Z,90.61
2023-01-09T08:03:39.259Z,90.50
2023-01-09T08:04:41.134Z,90.54
2023-01-09T08:05:43.047Z,91.14
2023-01-09T08:06:44.901Z,91.05
2023-01-09T08:07:46.919Z,90.96
2023-01-09T08:08:48.831Z,91.60
2023-01-09T08:09:50.715Z,91.56
2023-01-09T08:10:52.562Z,91.63
2023-01-09T08:11:56.224Z,92.85
2023-01-09T08:12:59.381Z,92.92
2023-01-09T08:14:01.215Z,92.17
2023-01-09T08:15:03.150Z,92.13
2023-01-09T08:16:05.251Z,92.43
2023-01-09T08:17:07.035Z,92.63
2023-01-09T08:18:09.119Z,93.54
2023-01-09T08:19:12.363Z,92.95
2023-01-09T08:20:15.548Z,93.42
2023-01-09T08:21:17.346Z,93.99
2023-01-09T08:22:19.559Z,94.67
2023-01-09T08:23:21.418Z,95.34
2023-01-09T08:24:23.299Z,95.62
2023-01-09T08:25:25.165Z,94.95
2023-01-09T08:26:26.906Z,95.44
2023-01-09T08:27:28.676Z,95.53
2023-01-09T08:28:30.562Z,95.98
2023-01-09T08:29:32.362Z,95.24
2023-01-09T08:30:34.169Z,95.60
2023-01-09T08:31:35.994Z,96.27
2023-01-09T08:32:38.094Z,96.02
2023-01-09T08:33:40.581Z,96.41
2023-01-09T08:34:42.481Z,96.45
2023-01-09T08:35:44.903Z,96.26
2023-01-09T08:36:46.790Z,96.52
2023-01-09T08:37:49.223Z,96.32
2023-01-09T08:38:51.159Z,96.39
2023-01-09T08:39:53.633Z,96.33
2023-01-09T08:40:55.497Z,96.36
2023-01-09T08:42:15.886Z,96.05
2023-01-09T08:43:36.069Z,95.84
2023-01-09T08:44:56.343Z,96.88
2023-01-09T08:46:17.082Z,96.80
2023-01-09T08:47:20.722Z,96.97
2023-01-09T08:48:22.584Z,97.24
2023-01-09T08:49:24.510Z,96.71
2023-01-09T08:50:26.378Z,97.12
2023-01-09T08:51:28.239Z,97.38
2023-01-09T08:52:31.019Z,97.16
2023-01-09T08:53:32.809Z,97.51
2023-01-09T08:54:39.112Z,97.93
2023-01-09T08:55:41.133Z,98.59
2023-01-09T08:56:42.907Z,98.95
2023-01-09T08:57:48.806Z,98.12
2023-01-09T08:58:50.608Z,98.54
2023-01-09T08:59:52.576Z,98.04
2023-01-09T09:00:54.399Z,98.88
2023-01-09T09:01:56.386Z,98.88
2023-01-09T09:02:59.739Z,97.99
2023-01-09T09:04:01.582Z,98.18
2023-01-09T09:05:03.488Z,98.84
2023-01-09T09:06:09.767Z,98.75
2023-01-09T09:07:11.541Z,98.55
2023-01-09T09:08:13.457Z,99.02
2023-01-09T09:09:15.442Z,98.80
2023-01-09T09:10:18.278Z,99.16
2023-01-09T09:11:20.163Z,98.07
2023-01-09T09:12:22.626Z,98.61
2023-01-09T09:13:24.503Z,99.26
2023-01-09T09:14:44.895Z,98.94
2023-01-09T09:15:46.788Z,98.81
2023-01-09T09:16:49.627Z,97.89
2023-01-09T09:17:53.945Z,98.49
2023-01-09T09:18:55.699Z,98.27
2023-01-09T09:19:57.558Z,98.43
2023-01-09T09:20:59.391Z,98.81
2023-01-09T09:22:01.233Z,98.16
2023-01-09T09:23:03.682Z,98.53
2023-01-09T09:24:05.682Z,98.52
2023-01-09T09:25:07.712Z,99.37
2023-01-09T09:26:09.600Z,98.87
2023-01-09T09:27:11.486Z,99.28
2023-01-09T09:28:13.344Z,99.26
2023-01-09T09:29:15.226Z,99.00
2023-01-09T09:30:18.403Z,99.76
2023-01-09T09:31:20.332Z,98.98
2023-01-09T09:32:22.303Z,98.97
2023-01-09T09:33:24.078Z,98.73
2023-01-09T09:34:25.846Z,98.94
2023-01-09T09:35:28.748Z,98.58
2023-01-09T09:36:30.689Z,98.40
2023-01-09T09:37:32.596Z,98.64
2023-01-09T09:38:34.462Z,98.55
2023-01-09T09:39:36.245Z,98.33
2023-01-09T09:40:58.372Z,98.31
2023-01-09T09:42:37.330Z,98.20
2023-01-09T09:44:20.218Z,97.99
2023-01-09T09:45:31.217Z,97.40
2023-01-09T09:46:38.727Z,97.71
2023-01-09T09:47:49.374Z,97.74
2023-01-09T09:49:00.045Z,97.98
2023-01-09T09:50:26.321Z,98.27
2023-01-09T09:51:51.132Z,97.11
2023-01-09T09:53:02.109Z,97.80
2023-01-09T09:54:03.828Z,97.59
2023-01-09T09:55:15.324Z,97.14
2023-01-09T09:56:19.016Z,98.00
2023-01-09T09:57:23.716Z,98.24
2023-01-09T09:58:37.733Z,98.10
2023-01-09T09:59:40.743Z,97.74
2023-01-09T10:00:42.776Z,97.85
2023-01-09T10:01:57.960Z,97.84
2023-01-09T10:03:05.118Z,97.28
2023-01-09T10:04:11.204Z,97.66
2023-01-09T10:05:17.343Z,97.51
2023-01-09T10:06:28.651Z,97.56
2023-01-09T10:07:33.674Z,97.27
2023-01-09T10:08:35.958Z,96.97
2023-01-09T10:09:43.811Z,97.21
2023-01-09T10:10:52.766Z,97.61
2023-01-09T10:11:59.291Z,97.99
2023-01-09T10:13:21.509Z,97.81
2023-01-09T10:14:24.778Z,97.17
2023-01-09T10:15:32.651Z,97.99
2023-01-09T10:16:45.845Z,97.94
2023-01-09T10:18:07.613Z,97.66
2023-01-09T10:19:36.258Z,97.67
2023-01-09T10:20:41.095Z,97.81
2023-01-09T10:21:58.336Z,98.62
2023-01-09T10:23:15.680Z,98.44
2023-01-09T10:24:27.179Z,98.87
2023-01-09T10:25:29.024Z,98.15
2023-01-09T10:26:51.215Z,99.18
2023-01-09T10:27:52.978Z,99.09
2023-01-09T10:29:00.722Z,98.22
2023-01-09T10:30:21.736Z,98.18
2023-01-09T10:31:30.269Z,98.48
2023-01-09T10:32:32.076Z,98.17
2023-01-09T10:33:42.631Z,99.20
2023-01-09T10:34:56.931Z,98.17
2023-01-09T10:35:58.777Z,97.63
2023-01-09T10:37:19.103Z,97.94
2023-01-09T10:38:24.152Z,98.65
2023-01-09T10:39:35.234Z,98.35
2023-01-09T10:40:40.751Z,98.01
2023-01-09T10:41:56.144Z,97.82
2023-01-09T10:43:01.019Z,97.79
2023-01-09T10:44:07.886Z,98.18
2023-01-09T10:45:36.030Z,97.86
2023-01-09T10:46:58.177Z,98.08
2023-01-09T10:48:06.523Z,97.76
2023-01-09T10:49:13.072Z,97.89
2023-01-09T10:50:28.853Z,97.98
2023-01-09T10:51:39.949Z,98.47
2023-01-09T10:52:42.875Z,99.38
2023-01-09T10:53:48.999Z,99.29
2023-01-09T10:54:59.437Z,98.96
2023-01-09T10:56:04.928Z,99.05
2023-01-09T10:57:12.167Z,97.98
2023-01-09T10:58:14.942Z,96.54
2023-01-09T10:59:17.580Z,96.88
2023-01-09T11:00:24.088Z,96.50
2023-01-09T11:01:26.120Z,96.63
2023-01-09T11:02:29.968Z,96.61
2023-01-09T11:03:31.784Z,96.70
2023-01-09T11:04:36.461Z,96.87
2023-01-09T11:05:38.200Z,97.77
2023-01-09T11:06:47.939Z,97.63
2023-01-09T11:07:51.710Z,98.16
2023-01-09T11:08:55.859Z,98.09
2023-01-09T11:10:02.012Z,98.22
2023-01-09T11:11:04.009Z,98.19
2023-01-09T11:12:23.172Z,97.63
2023-01-09T11:13:34.964Z,98.56
2023-01-09T11:14:37.627Z,98.03
2023-01-09T11:15:39.421Z,97.71
2023-01-09T11:17:02.526Z,98.06
2023-01-09T11:18:24.856Z,98.33
2023-01-09T11:19:27.389Z,98.19
2023-01-09T11:20:30.011Z,98.61
2023-01-09T11:21:32.160Z,98.32
2023-01-09T11:22:50.642Z,97.53
2023-01-09T11:23:52.678Z,98.03
2023-01-09T11:25:00.601Z,97.43
2023-01-09T11:26:02.737Z,97.37
2023-01-09T11:27:13.650Z,96.90
2023-01-09T11:28:15.479Z,97.17
2023-01-09T11:29:19.668Z,96.54
2023-01-09T11:30:27.151Z,96.96
2023-01-09T11:31:29.338Z,96.63
2023-01-09T11:32:32.338Z,96.57
2023-01-09T11:33:41.541Z,96.91
2023-01-09T11:34:46.310Z,97.74
2023-01-09T11:35:55.528Z,97.35
2023-01-09T11:37:07.183Z,97.62
2023-01-09T11:38:15.434Z,97.91
2023-01-09T11:39:25.447Z,97.90
2023-01-09T11:40:27.599Z,97.78
2023-01-09T11:41:37.503Z,97.48
2023-01-09T11:42:51.766Z,97.78
2023-01-09T11:43:55.366Z,96.68
2023-01-09T11:44:59.062Z,96.59
2023-01-09T11:46:02.682Z,96.83
2023-01-09T11:47:24.362Z,97.36
2023-01-09T11:48:26.178Z,97.15
2023-01-09T11:49:30.117Z,95.46
2023-01-09T11:50:32.679Z,95.49
2023-01-09T11:51:35.718Z,94.84
2023-01-09T11:52:37.559Z,94.60
2023-01-09T11:53:46.137Z,94.27
2023-01-09T11:54:50.901Z,93.82
2023-01-09T11:56:01.448Z,94.03
2023-01-09T11:57:03.227Z,93.20
2023-01-09T11:58:05.423Z,92.59
2023-01-09T11:59:26.811Z,92.44
2023-01-09T12:00:29.967Z,92.10
2023-01-09T12:01:50.630Z,92.19
2023-01-09T12:03:11.471Z,91.80
2023-01-09T12:04:19.325Z,91.62
2023-01-09T12:05:24.176Z,92.70
2023-01-09T12:06:29.039Z,92.95
2023-01-09T12:07:33.889Z,93.34
2023-01-09T12:08:56.352Z,93.22
2023-01-09T12:10:12.198Z,93.56
2023-01-09T12:11:27.306Z,93.32
2023-01-09T12:12:47.895Z,93.57
2023-01-09T12:14:02.138Z,93.98
2023-01-09T12:15:12.701Z,93.71
2023-01-09T12:16:33.258Z,93.86
2023-01-09T12:17:53.131Z,93.92
2023-01-09T12:18:57.842Z,94.26
2023-01-09T12:20:14.459Z,93.76
2023-01-09T12:21:31.452Z,94.34
2023-01-09T12:22:47.368Z,94.04
2023-01-09T12:23:55.738Z,95.01
2023-01-09T12:24:57.598Z,94.33
2023-01-09T12:26:05.308Z,94.60
2023-01-09T12:27:13.076Z,94.07
2023-01-09T12:28:37.175Z,94.50
2023-01-09T12:29:42.147Z,94.58
2023-01-09T12:30:43.928Z,94.76
2023-01-09T12:31:48.797Z,94.98
2023-01-09T12:32:53.500Z,94.60
2023-01-09T12:34:08.643Z,94.84
2023-01-09T12:35:10.486Z,94.83
2023-01-09T12:36:15.754Z,94.05
2023-01-09T12:37:35.408Z,94.82
2023-01-09T12:38:55.334Z,94.51
2023-01-09T12:40:12.532Z,94.89
2023-01-09T12:41:23.266Z,94.16
2023-01-09T12:42:25.148Z,92.32
2023-01-09T12:43:45.727Z,90.46
2023-01-09T12:45:13.897Z,90.13
2023-01-09T12:46:18.491Z,84.87
2023-01-09T12:47:26.440Z,84.62
2023-01-09T12:48:47.065Z,86.00
2023-01-09T12:49:48.895Z,85.29
2023-01-09T12:51:13.030Z,83.31
2023-01-09T12:52:23.639Z,85.16
2023-01-09T12:53:35.103Z,85.57
2023-01-09T12:54:43.037Z,87.03
2023-01-09T12:55:51.662Z,86.61
2023-01-09T12:56:56.212Z,87.00
2023-01-09T12:57:59.850Z,86.99
2023-01-09T12:59:07.481Z,88.01
2023-01-09T13:00:09.366Z,87.03
2023-01-09T13:01:32.836Z,86.54
2023-01-09T13:02:39.592Z,85.68
2023-01-09T13:04:04.616Z,85.84
2023-01-09T13:05:16.259Z,85.33
2023-01-09T13:06:21.192Z,83.53
2023-01-09T13:07:27.875Z,79.98
2023-01-09T13:08:41.930Z,78.05
2023-01-09T13:09:53.680Z,78.46
2023-01-09T13:11:19.856Z,77.95
2023-01-09T13:12:24.930Z,75.50
2023-01-09T13:13:31.079Z,76.56
2023-01-09T13:14:59.021Z,78.64
2023-01-09T13:16:10.855Z,78.55
2023-01-09T13:17:31.057Z,79.57
2023-01-09T13:18:42.944Z,81.41
2023-01-09T13:19:46.454Z,82.58
2023-01-09T13:20:49.989Z,82.40
2023-01-09T13:21:52.503Z,83.00
2023-01-09T13:22:55.390Z,83.06
2023-01-09T13:24:16.059Z,82.66
2023-01-09T13:25:27.208Z,82.83
2023-01-09T13:26:47.346Z,83.62
2023-01-09T13:27:56.446Z,83.92
2023-01-09T13:29:03.518Z,84.43
2023-01-09T13:30:19.811Z,84.11
2023-01-09T13:31:56.925Z,84.91
2023-01-09T13:33:10.864Z,85.53
2023-01-09T13:34:22.388Z,85.49
2023-01-09T13:35:24.764Z,85.87
2023-01-09T13:36:29.206Z,85.25
2023-01-09T13:37:32.661Z,85.49
2023-01-09T13:38:36.505Z,85.13
2023-01-09T13:39:38.486Z,85.01
2023-01-09T13:40:40.452Z,86.08
2023-01-09T13:42:10.268Z,85.05
2023-01-09T13:43:15.183Z,85.36
2023-01-09T13:44:25.521Z,85.36
2023-01-09T13:45:29.041Z,85.17
2023-01-09T13:46:39.661Z,85.76
2023-01-09T13:47:41.737Z,85.57
2023-01-09T13:48:43.808Z,85.66
2023-01-09T13:49:45.655Z,85.31
2023-01-09T13:50:48.465Z,85.45
2023-01-09T13:51:56.877Z,84.80
2023-01-09T13:53:18.562Z,84.07
2023-01-09T13:54:40.293Z,82.57
2023-01-09T13:56:02.827Z,83.35
2023-01-09T13:57:19.718Z,84.49
2023-01-09T13:58:22.901Z,84.25
2023-01-09T13:59:28.865Z,84.75
2023-01-09T14:00:36.544Z,84.97
2023-01-09T14:01:42.057Z,84.74